createdAt,value
2023-03-20T00:00:04.540Z,-1.04
2023-03-20T00:02:35.423Z,-1.07
2023-03-20T00:05:07.186Z,-1.05
2023-03-20T00:07:36.785Z,-0.98
2023-03-20T00:10:06.464Z,-0.99
2023-03-20T00:12:35.372Z,-1.00
2023-03-20T00:15:07.385Z,-1.06
2023-03-20T00:17:36.562Z,-1.05
2023-03-20T00:20:05.816Z,-1.02
2023-03-20T00:22:35.039Z,-1.00
2023-03-20T00:25:04.089Z,-1.04
2023-03-20T00:27:32.915Z,-1.00
2023-03-20T00:30:01.648Z,-1.01
2023-03-20T00:32:32.591Z,-1.09
2023-03-20T00:35:12.331Z,-1.13
2023-03-20T00:37:41.784Z,-1.09
2023-03-20T00:40:11.325Z,-1.03
2023-03-20T00:42:47.292Z,-0.94
2023-03-20T00:45:24.894Z,-0.81
2023-03-20T00:47:54.004Z,-0.79
2023-03-20T00:50:27.648Z,-0.84
2023-03-20T00:52:58.357Z,-0.84
2023-03-20T00:55:30.839Z,-0.83
2023-03-20T00:58:03.249Z,-0.87
2023-03-20T01:00:41.237Z,-0.83
2023-03-20T01:03:20.062Z,-0.79
2023-03-20T01:05:52.247Z,-0.66
2023-03-20T01:08:24.541Z,-0.60
2023-03-20T01:10:59.173Z,-0.69
2023-03-20T01:13:30.401Z,-0.74
2023-03-20T01:16:00.050Z,-0.92
2023-03-20T01:18:29.154Z,-1.18
2023-03-20T01:20:58.676Z,-1.30
2023-03-20T01:23:28.163Z,-1.24
2023-03-20T01:25:58.129Z,-1.18
2023-03-20T01:28:34.209Z,-1.22
2023-03-20T01:31:03.244Z,-1.43
2023-03-20T01:33:33.390Z,-1.54
2023-03-20T01:36:02.834Z,-1.51
2023-03-20T01:38:31.863Z,-1.40
2023-03-20T01:41:11.315Z,-1.20
2023-03-20T01:43:41.976Z,-0.96
2023-03-20T01:46:26.095Z,-0.60
2023-03-20T01:49:23.787Z,-0.09
2023-03-20T01:51:57.776Z,0.11
2023-03-20T01:54:40.012Z,-0.04
2023-03-20T01:57:17.362Z,-0.24
2023-03-20T01:59:54.551Z,-0.28
2023-03-20T02:02:30.003Z,-0.30
2023-03-20T02:05:04.228Z,-0.23
2023-03-20T02:07:36.190Z,-0.04
2023-03-20T02:10:15.920Z,0.14
2023-03-20T02:12:55.322Z,0.28
2023-03-20T02:15:34.149Z,0.33
2023-03-20T02:18:16.307Z,0.30
2023-03-20T02:20:53.516Z,0.21
2023-03-20T02:23:40.791Z,0.13
2023-03-20T02:26:45.057Z,0.14
2023-03-20T02:29:49.204Z,0.23
2023-03-20T02:32:40.483Z,0.15
2023-03-20T02:35:38.655Z,0.14
2023-03-20T02:38:40.263Z,0.05
2023-03-20T02:41:30.490Z,-0.07
2023-03-20T02:44:28.895Z,0.11
2023-03-20T02:47:16.232Z,0.41
2023-03-20T02:49:56.929Z,0.47
2023-03-20T02:52:54.330Z,0.37
2023-03-20T02:55:54.398Z,0.29
2023-03-20T02:58:33.251Z,0.04
2023-03-20T03:01:32.109Z,-0.19
2023-03-20T03:04:18.878Z,-0.33
2023-03-20T03:06:52.242Z,-0.19
2023-03-20T03:09:30.367Z,-0.16
2023-03-20T03:12:07.570Z,-0.17
2023-03-20T03:14:44.868Z,-0.11
2023-03-20T03:17:19.980Z,-0.18
2023-03-20T03:19:53.510Z,-0.21
2023-03-20T03:22:23.243Z,-0.33
2023-03-20T03:24:54.869Z,-0.47
2023-03-20T03:27:35.273Z,-0.62
2023-03-20T03:30:12.920Z,-0.46
2023-03-20T03:32:51.883Z,-0.39
2023-03-20T03:35:24.110Z,-0.25
2023-03-20T03:38:02.154Z,-0.17
2023-03-20T03:41:11.792Z,-0.23
2023-03-20T03:44:13.379Z,-0.44
2023-03-20T03:46:54.914Z,-0.42
2023-03-20T03:49:30.197Z,-0.52
2023-03-20T03:52:05.984Z,-0.60
2023-03-20T03:54:59.078Z,-0.58
2023-03-20T03:57:57.131Z,-0.51
2023-03-20T04:00:29.287Z,-0.49
2023-03-20T04:03:00.399Z,-0.58
2023-03-20T04:05:33.877Z,-0.61
2023-03-20T04:08:04.583Z,-0.41
2023-03-20T04:10:33.392Z,-0.17
2023-03-20T04:13:02.456Z,-0.12
2023-03-20T04:15:31.554Z,-0.28
2023-03-20T04:18:00.587Z,-0.37
2023-03-20T04:20:30.464Z,-0.44
2023-03-20T04:22:59.452Z,-0.49
2023-03-20T04:25:28.664Z,-0.59
2023-03-20T04:27:59.703Z,-0.74
2023-03-20T04:30:57.793Z,-0.90
2023-03-20T04:33:47.525Z,-0.88
2023-03-20T04:36:27.536Z,-0.68
2023-03-20T04:38:57.767Z,-0.77
2023-03-20T04:41:27.729Z,-1.03
2023-03-20T04:43:59.071Z,-1.37
2023-03-20T04:46:28.151Z,-1.52
2023-03-20T04:48:57.206Z,-1.31
2023-03-20T04:51:31.401Z,-0.90
2023-03-20T04:54:00.814Z,-0.62
2023-03-20T04:56:29.723Z,-0.42
2023-03-20T04:59:12.148Z,-0.23
2023-03-20T05:01:44.420Z,-0.13
2023-03-20T05:04:13.903Z,0.20
2023-03-20T05:06:44.722Z,1.31
2023-03-20T05:09:13.682Z,1.48
2023-03-20T05:11:43.260Z,1.13
2023-03-20T05:14:32.343Z,1.24
2023-03-20T05:17:27.066Z,0.92
2023-03-20T05:20:14.494Z,0.19
2023-03-20T05:23:15.594Z,0.29
2023-03-20T05:26:04.533Z,0.25
2023-03-20T05:28:52.241Z,0.56
2023-03-20T05:31:39.447Z,1.32
2023-03-20T05:34:34.210Z,2.52
2023-03-20T05:37:12.295Z,3.84
2023-03-20T05:40:00.948Z,4.14
2023-03-20T05:42:58.998Z,3.44
2023-03-20T05:45:54.582Z,3.33
2023-03-20T05:48:43.480Z,2.47
2023-03-20T05:51:30.832Z,2.33
2023-03-20T05:54:07.750Z,1.99
2023-03-20T05:56:59.428Z,1.66
2023-03-20T05:59:38.030Z,2.02
2023-03-20T06:02:13.823Z,2.44
2023-03-20T06:04:49.279Z,2.85
2023-03-20T06:07:32.449Z,2.69
2023-03-20T06:10:05.960Z,2.48
2023-03-20T06:12:34.981Z,2.02
2023-03-20T06:15:04.390Z,1.29
2023-03-20T06:17:37.037Z,1.10
2023-03-20T06:20:07.114Z,0.96
2023-03-20T06:22:36.601Z,1.01
2023-03-20T06:25:07.390Z,0.83
2023-03-20T06:27:41.916Z,0.61
2023-03-20T06:30:12.364Z,0.34
2023-03-20T06:32:43.403Z,0.11
2023-03-20T06:35:15.112Z,0.15
2023-03-20T06:37:47.927Z,0.86
2023-03-20T06:40:23.196Z,2.02
2023-03-20T06:42:52.405Z,2.64
2023-03-20T06:45:23.351Z,2.86
2023-03-20T06:48:00.327Z,2.76
2023-03-20T06:50:30.049Z,2.17
2023-03-20T06:53:00.687Z,1.43
2023-03-20T06:55:52.221Z,0.58
2023-03-20T06:58:21.059Z,-0.05
2023-03-20T07:00:55.450Z,-0.39
2023-03-20T07:03:24.609Z,-0.83
2023-03-20T07:05:56.371Z,-1.42
2023-03-20T07:08:25.330Z,-1.60
2023-03-20T07:10:54.582Z,-1.67
2023-03-20T07:13:24.010Z,-1.78
2023-03-20T07:16:03.761Z,-1.93
2023-03-20T07:18:40.864Z,-2.08
2023-03-20T07:21:09.818Z,-2.35
2023-03-20T07:23:39.920Z,-2.46
2023-03-20T07:26:09.201Z,-2.44
2023-03-20T07:28:38.352Z,-2.40
2023-03-20T07:31:26.430Z,-2.48
2023-03-20T07:34:04.383Z,-2.29
2023-03-20T07:36:35.319Z,-2.05
2023-03-20T07:39:04.437Z,-1.95
2023-03-20T07:41:35.131Z,-1.83
2023-03-20T07:44:09.464Z,-1.74
2023-03-20T07:46:49.233Z,-1.74
2023-03-20T07:49:21.948Z,-1.16
2023-03-20T07:51:51.870Z,-0.52
2023-03-20T07:54:21.680Z,-0.80
2023-03-20T07:56:52.027Z,-1.53
2023-03-20T07:59:21.233Z,-2.24
2023-03-20T08:01:50.981Z,-2.65
2023-03-20T08:04:23.193Z,-2.98
2023-03-20T08:06:52.418Z,-3.26
2023-03-20T08:09:21.531Z,-3.17
2023-03-20T08:11:50.494Z,-3.17
2023-03-20T08:14:19.423Z,-2.92
2023-03-20T08:16:52.051Z,-2.20
2023-03-20T08:19:29.043Z,-1.22
2023-03-20T08:21:57.827Z,-1.34
2023-03-20T08:24:26.895Z,-1.56
2023-03-20T08:26:55.743Z,-1.64
2023-03-20T08:29:24.667Z,-1.68
2023-03-20T08:31:53.537Z,-1.75
2023-03-20T08:34:24.112Z,-1.94
2023-03-20T08:36:53.538Z,-2.33
2023-03-20T08:39:22.906Z,-2.84
2023-03-20T08:41:52.118Z,-3.16
2023-03-20T08:44:21.376Z,-3.21
2023-03-20T08:46:50.218Z,-3.23
2023-03-20T08:49:21.347Z,-3.19
2023-03-20T08:51:50.401Z,-3.06
2023-03-20T08:54:19.513Z,-2.89
2023-03-20T08:56:48.340Z,-2.82
2023-03-20T08:59:17.363Z,-2.83
2023-03-20T09:01:50.118Z,-3.03
2023-03-20T09:04:19.829Z,-3.51
2023-03-20T09:06:49.779Z,-3.94
2023-03-20T09:09:20.944Z,-4.12
2023-03-20T09:11:49.743Z,-4.15
2023-03-20T09:14:18.617Z,-4.00
2023-03-20T09:16:47.677Z,-3.98
2023-03-20T09:19:16.722Z,-4.09
2023-03-20T09:21:46.108Z,-4.39
2023-03-20T09:24:14.913Z,-4.60
2023-03-20T09:26:43.767Z,-4.56
2023-03-20T09:29:12.668Z,-4.47
2023-03-20T09:31:41.541Z,-4.34
2023-03-20T09:34:10.555Z,-4.35
2023-03-20T09:36:39.347Z,-4.62
2023-03-20T09:39:08.161Z,-4.90
2023-03-20T09:41:52.895Z,-5.09
2023-03-20T09:44:49.743Z,-5.21
2023-03-20T09:47:41.588Z,-5.39
2023-03-20T09:50:25.120Z,-5.61
2023-03-20T09:53:17.555Z,-5.66
2023-03-20T09:55:46.770Z,-5.61
2023-03-20T09:58:40.804Z,-6.01
2023-03-20T10:01:16.718Z,-6.51
2023-03-20T10:03:53.872Z,-6.91
2023-03-20T10:06:23.008Z,-7.19
2023-03-20T10:08:55.673Z,-7.30
2023-03-20T10:11:46.333Z,-7.35
2023-03-20T10:14:42.812Z,-7.31
2023-03-20T10:17:14.411Z,-7.30
2023-03-20T10:19:52.555Z,-7.29
2023-03-20T10:22:35.601Z,-7.30
2023-03-20T10:25:26.972Z,-7.23
2023-03-20T10:28:06.209Z,-7.34
2023-03-20T10:30:57.378Z,-7.54
2023-03-20T10:33:29.080Z,-7.66
2023-03-20T10:36:13.239Z,-7.83
2023-03-20T10:39:03.566Z,-8.02
2023-03-20T10:41:40.004Z,-8.12
2023-03-20T10:44:18.683Z,-8.23
2023-03-20T10:46:51.031Z,-8.33
2023-03-20T10:50:00.938Z,-8.45
2023-03-20T10:52:34.503Z,-8.55
2023-03-20T10:55:16.250Z,-8.58
2023-03-20T10:57:55.769Z,-8.61
2023-03-20T11:00:27.879Z,-8.60
2023-03-20T11:02:57.235Z,-8.53
2023-03-20T11:05:35.590Z,-8.50
2023-03-20T11:08:06.902Z,-8.51
2023-03-20T11:10:38.129Z,-8.50
2023-03-20T11:13:31.073Z,-8.49
2023-03-20T11:16:12.345Z,-8.56
2023-03-20T11:18:42.985Z,-8.55
2023-03-20T11:21:27.791Z,-8.58
2023-03-20T11:23:57.085Z,-8.58
2023-03-20T11:26:35.387Z,-8.56
2023-03-20T11:29:08.731Z,-8.66
2023-03-20T11:31:41.628Z,-8.64
2023-03-20T11:34:16.393Z,-8.73
2023-03-20T11:37:10.131Z,-8.67
2023-03-20T11:39:41.488Z,-8.59
2023-03-20T11:42:25.498Z,-8.62
2023-03-20T11:45:20.648Z,-8.67
2023-03-20T11:47:53.452Z,-8.71
2023-03-20T11:50:36.280Z,-8.79
2023-03-20T11:53:22.649Z,-8.90
2023-03-20T11:56:06.788Z,-8.99
2023-03-20T11:58:38.387Z,-9.11
2023-03-20T12:01:12.939Z,-9.20
2023-03-20T12:03:47.166Z,-9.40
2023-03-20T12:06:43.294Z,-9.64
2023-03-20T12:09:24.723Z,-9.83
2023-03-20T12:12:15.020Z,-9.90
2023-03-20T12:14:56.282Z,-9.88
2023-03-20T12:18:22.787Z,-9.87
2023-03-20T12:21:16.598Z,-9.74
2023-03-20T12:23:53.025Z,-9.79
2023-03-20T12:26:27.827Z,-9.62
2023-03-20T12:29:10.634Z,-9.68
2023-03-20T12:32:03.596Z,-9.69
2023-03-20T12:34:56.627Z,-9.71
2023-03-20T12:37:25.859Z,-9.70
2023-03-20T12:40:08.415Z,-9.72
2023-03-20T12:42:58.019Z,-9.73
2023-03-20T12:45:32.416Z,-9.68
2023-03-20T12:48:26.442Z,-9.73
2023-03-20T12:51:00.063Z,-9.94
2023-03-20T12:53:47.386Z,-10.09
2023-03-20T12:56:48.813Z,-10.29
2023-03-20T12:59:47.357Z,-10.47
2023-03-20T13:02:34.947Z,-10.56
2023-03-20T13:05:13.589Z,-10.60
2023-03-20T13:07:56.984Z,-10.59
2023-03-20T13:10:37.961Z,-10.54
2023-03-20T13:13:15.701Z,-10.44
2023-03-20T13:16:09.709Z,-10.43
2023-03-20T13:18:56.392Z,-10.47
2023-03-20T13:21:48.072Z,-10.41
2023-03-20T13:24:33.688Z,-10.43
2023-03-20T13:27:36.551Z,-10.43
2023-03-20T13:30:19.100Z,-10.51
2023-03-20T13:32:56.231Z,-10.57
2023-03-20T13:35:52.770Z,-10.64
2023-03-20T13:38:25.225Z,-10.69
2023-03-20T13:41:03.148Z,-10.76
2023-03-20T13:43:40.269Z,-10.69
2023-03-20T13:46:17.362Z,-10.65
2023-03-20T13:48:47.369Z,-10.66
2023-03-20T13:51:35.061Z,-10.68
2023-03-20T13:54:40.423Z,-10.65
2023-03-20T13:57:29.218Z,-10.64
2023-03-20T14:00:07.479Z,-10.74
2023-03-20T14:03:12.600Z,-10.91
2023-03-20T14:05:44.139Z,-10.99
2023-03-20T14:08:36.221Z,-10.98
2023-03-20T14:11:24.624Z,-11.02
2023-03-20T14:13:57.496Z,-11.18
2023-03-20T14:16:29.818Z,-11.24
2023-03-20T14:19:29.736Z,-11.37
2023-03-20T14:22:00.305Z,-11.57
2023-03-20T14:24:30.020Z,-11.72
2023-03-20T14:27:01.880Z,-11.70
2023-03-20T14:29:30.821Z,-11.72
2023-03-20T14:32:14.916Z,-11.78
2023-03-20T14:35:01.187Z,-11.86
2023-03-20T14:37:30.467Z,-11.96
2023-03-20T14:40:17.322Z,-12.05
2023-03-20T14:42:52.505Z,-12.16
2023-03-20T14:45:42.891Z,-12.27
2023-03-20T14:48:38.962Z,-12.31
2023-03-20T14:51:16.501Z,-12.33
2023-03-20T14:53:45.462Z,-12.32
2023-03-20T14:56:16.011Z,-12.30
2023-03-20T14:59:00.945Z,-12.17
2023-03-20T15:01:41.242Z,-12.04
2023-03-20T15:04:23.185Z,-12.05
2023-03-20T15:06:57.587Z,-12.16
2023-03-20T15:09:29.921Z,-12.35
2023-03-20T15:12:04.929Z,-12.49
2023-03-20T15:14:58.599Z,-12.52
2023-03-20T15:17:50.185Z,-12.68
2023-03-20T15:20:26.334Z,-12.72
2023-03-20T15:22:58.165Z,-12.85
2023-03-20T15:25:45.438Z,-12.90
2023-03-20T15:28:40.428Z,-12.93
2023-03-20T15:31:36.039Z,-12.97
2023-03-20T15:34:10.562Z,-13.04
2023-03-20T15:36:41.685Z,-13.01
2023-03-20T15:39:17.939Z,-13.03
2023-03-20T15:41:49.080Z,-13.07
2023-03-20T15:44:22.098Z,-13.01
2023-03-20T15:47:01.332Z,-13.02
2023-03-20T15:49:32.729Z,-13.10
2023-03-20T15:52:06.788Z,-13.14
2023-03-20T15:54:38.114Z,-13.18
2023-03-20T15:57:07.216Z,-13.22
2023-03-20T15:59:36.076Z,-13.25
2023-03-20T16:02:05.724Z,-13.29
2023-03-20T16:04:35.409Z,-13.23
2023-03-20T16:07:07.081Z,-13.23
2023-03-20T16:09:45.062Z,-13.20
2023-03-20T16:12:18.487Z,-13.21
2023-03-20T16:14:49.196Z,-13.28
2023-03-20T16:17:19.857Z,-13.29
2023-03-20T16:19:49.262Z,-13.34
2023-03-20T16:22:34.373Z,-13.34
2023-03-20T16:25:03.447Z,-13.40
2023-03-20T16:27:37.701Z,-13.45
2023-03-20T16:30:15.116Z,-13.50
2023-03-20T16:32:47.863Z,-13.51
2023-03-20T16:35:23.374Z,-13.52
2023-03-20T16:37:58.190Z,-13.49
2023-03-20T16:40:37.162Z,-13.47
2023-03-20T16:43:19.961Z,-13.43
2023-03-20T16:45:58.078Z,-13.41
2023-03-20T16:48:35.046Z,-13.45
2023-03-20T16:51:15.098Z,-13.43
2023-03-20T16:53:47.937Z,-13.49
2023-03-20T16:56:41.113Z,-13.47
2023-03-20T16:59:18.969Z,-13.47
2023-03-20T17:01:49.820Z,-13.40
2023-03-20T17:04:24.694Z,-13.41
2023-03-20T17:06:55.977Z,-13.38
2023-03-20T17:09:28.301Z,-13.33
2023-03-20T17:12:12.236Z,-13.31
2023-03-20T17:14:47.047Z,-13.25
2023-03-20T17:17:21.740Z,-13.18
2023-03-20T17:19:50.776Z,-13.17
2023-03-20T17:22:26.871Z,-13.13
2023-03-20T17:24:55.694Z,-13.08
2023-03-20T17:27:24.856Z,-13.12
2023-03-20T17:29:53.841Z,-13.17
2023-03-20T17:32:26.750Z,-13.14
2023-03-20T17:34:55.592Z,-13.15
2023-03-20T17:37:29.907Z,-13.18
2023-03-20T17:39:59.086Z,-13.18
2023-03-20T17:42:32.011Z,-13.24
2023-03-20T17:45:07.175Z,-13.27
2023-03-20T17:47:44.161Z,-13.38
2023-03-20T17:50:24.895Z,-13.48
2023-03-20T17:52:55.440Z,-13.52
2023-03-20T17:55:24.552Z,-13.57
2023-03-20T17:57:54.528Z,-13.68
2023-03-20T18:00:26.355Z,-13.73
2023-03-20T18:02:55.571Z,-13.84
2023-03-20T18:05:24.668Z,-13.99
2023-03-20T18:07:53.436Z,-14.10
2023-03-20T18:10:29.436Z,-14.17
2023-03-20T18:12:58.736Z,-14.24
2023-03-20T18:15:27.894Z,-14.29
2023-03-20T18:17:56.722Z,-14.34
2023-03-20T18:20:33.667Z,-14.36
2023-03-20T18:23:02.831Z,-14.38
2023-03-20T18:25:31.746Z,-14.39
2023-03-20T18:28:02.523Z,-14.39
2023-03-20T18:30:35.964Z,-14.40
2023-03-20T18:33:06.304Z,-14.43
2023-03-20T18:35:37.175Z,-14.43
2023-03-20T18:38:06.613Z,-14.50
2023-03-20T18:40:37.508Z,-14.55
2023-03-20T18:43:06.617Z,-14.64
2023-03-20T18:45:35.440Z,-14.66
2023-03-20T18:48:04.477Z,-14.75
2023-03-20T18:50:38.320Z,-14.82
2023-03-20T18:53:09.100Z,-14.90
2023-03-20T18:55:38.852Z,-14.96
2023-03-20T18:58:11.173Z,-14.96
2023-03-20T19:00:41.137Z,-14.97
2023-03-20T19:03:12.847Z,-15.02
2023-03-20T19:05:41.799Z,-15.05
2023-03-20T19:08:19.462Z,-15.09
2023-03-20T19:10:49.163Z,-15.09
2023-03-20T19:13:20.890Z,-15.07
2023-03-20T19:15:49.729Z,-15.06
2023-03-20T19:18:24.875Z,-15.07
2023-03-20T19:20:58.235Z,-15.13
2023-03-20T19:23:29.437Z,-15.25
2023-03-20T19:25:58.168Z,-15.28
2023-03-20T19:28:39.088Z,-15.26
2023-03-20T19:31:10.208Z,-15.30
2023-03-20T19:33:40.584Z,-15.39
2023-03-20T19:36:32.905Z,-15.41
2023-03-20T19:39:04.625Z,-15.46
2023-03-20T19:41:37.279Z,-15.48
2023-03-20T19:44:06.814Z,-15.51
2023-03-20T19:46:40.344Z,-15.53
2023-03-20T19:49:30.188Z,-15.56
2023-03-20T19:51:59.616Z,-15.55
2023-03-20T19:54:29.394Z,-15.59
2023-03-20T19:56:58.141Z,-15.68
2023-03-20T19:59:28.892Z,-15.74
2023-03-20T20:01:59.322Z,-15.77
2023-03-20T20:04:28.957Z,-15.85
2023-03-20T20:07:33.109Z,-15.83
2023-03-20T20:09:46.614Z,-15.92
2023-03-20T20:12:15.465Z,-15.91
2023-03-20T20:14:44.199Z,-15.92
2023-03-20T20:17:13.131Z,-15.92
2023-03-20T20:19:42.214Z,-15.97
2023-03-20T20:22:27.715Z,-15.99
2023-03-20T20:24:58.285Z,-16.00
2023-03-20T20:27:29.680Z,-16.06
2023-03-20T20:29:59.483Z,-16.03
2023-03-20T20:32:30.414Z,-16.10
2023-03-20T20:35:43.429Z,-16.09
2023-03-20T20:40:37.294Z,-16.08
2023-03-20T20:43:10.360Z,-16.10
2023-03-20T20:45:39.842Z,-16.11
2023-03-20T20:48:10.110Z,-16.11
2023-03-20T20:50:39.879Z,-16.14
2023-03-20T20:53:08.883Z,-16.20
2023-03-20T20:55:38.034Z,-16.26
2023-03-20T20:58:07.382Z,-16.30
2023-03-20T21:00:49.543Z,-16.35
2023-03-20T21:03:20.962Z,-16.39
2023-03-20T21:05:49.911Z,-16.41
2023-03-20T21:08:19.486Z,-16.44
2023-03-20T21:10:49.237Z,-16.45
2023-03-20T21:13:18.392Z,-16.46
2023-03-20T21:15:48.193Z,-16.47
2023-03-20T21:18:17.250Z,-16.47
2023-03-20T21:20:46.648Z,-16.40
2023-03-20T21:23:15.621Z,-16.38
2023-03-20T21:25:47.753Z,-16.42
2023-03-20T21:28:17.088Z,-16.48
2023-03-20T21:31:12.652Z,-16.49
2023-03-20T21:33:37.333Z,-16.56
2023-03-20T21:36:07.351Z,-16.62
2023-03-20T21:41:25.401Z,-16.69
2023-03-20T21:43:54.381Z,-16.68
2023-03-20T21:46:58.625Z,-16.68
2023-03-20T21:55:27.510Z,-16.72
2023-03-20T22:01:39.361Z,-16.67
2023-03-20T22:03:44.104Z,-16.69
2023-03-20T22:07:13.033Z,-16.71
2023-03-20T22:12:33.489Z,-16.74
2023-03-20T22:23:56.368Z,-16.79
2023-03-20T22:26:55.008Z,-16.78
2023-03-20T22:29:51.183Z,-16.77
2023-03-20T22:32:33.411Z,-16.80
2023-03-20T22:35:19.524Z,-16.82
2023-03-20T22:40:57.504Z,-16.83
2023-03-20T22:43:50.924Z,-16.84
2023-03-20T22:46:03.443Z,-16.82
2023-03-20T22:48:37.340Z,-16.81
2023-03-20T22:51:07.167Z,-16.81
2023-03-20T22:53:36.243Z,-16.81
2023-03-20T22:56:05.499Z,-16.80
2023-03-20T22:58:34.559Z,-16.80
2023-03-20T23:01:05.640Z,-16.87
2023-03-20T23:03:41.330Z,-16.80
2023-03-20T23:06:22.865Z,-16.78
2023-03-20T23:08:56.417Z,-16.75
2023-03-20T23:11:28.054Z,-16.70
2023-03-20T23:13:57.622Z,-16.66
2023-03-20T23:16:26.462Z,-16.69
2023-03-20T23:18:55.379Z,-16.72
2023-03-20T23:21:27.259Z,-16.67
2023-03-20T23:23:56.268Z,-16.68
2023-03-20T23:26:25.313Z,-16.62
2023-03-20T23:28:55.382Z,-16.57
2023-03-20T23:31:26.616Z,-16.56
2023-03-20T23:33:57.763Z,-16.53
2023-03-20T23:36:42.697Z,-16.54
2023-03-20T23:39:13.935Z,-16.53
2023-03-20T23:42:07.809Z,-16.43
2023-03-20T23:44:31.593Z,-16.43
2023-03-20T23:47:03.322Z,-16.39
2023-03-20T23:49:34.630Z,-16.31
2023-03-20T23:52:03.716Z,-16.25
2023-03-20T23:54:32.620Z,-16.18
2023-03-20T23:57:01.474Z,-16.10
2023-03-20T23:59:31.789Z,-15.97
